Time;durP1;ratioP1;P1;durP2;ratioP2;P2;SDS_P1;SDS_P2;PMS_P1;PMS_P2;Temp;Humidity;BMP_temperature;BMP_pressure;BME280_temperature;BME280_humidity;BME280_pressure;Samples;Min_cycle;Max_cycle;Signal;HPM_P1;HPM_P2
2021/08/14 00:00:05;;;;;;;34.88;3.97;;;;;;;;;;5070970;28;20388;-43
2021/08/14 00:02:32;;;;;;;23.85;3.65;;;;;;;;;;5078097;28;20380;-38
2021/08/14 00:04:59;;;;;;;28.20;3.60;;;;;;;;;;5073168;28;20032;-36
2021/08/14 00:07:26;;;;;;;26.33;4.78;;;;;;;;;;5061165;28;20165;-35
2021/08/14 00:09:53;;;;;;;28.17;4.78;;;;;;;;;;5076165;28;20380;-42
2021/08/14 00:12:20;;;;;;;43.78;5.97;;;;;;;;;;5079048;28;20820;-39
2021/08/14 00:14:47;;;;;;;35.75;5.75;;;;;;;;;;5074228;28;20039;-38
2021/08/14 00:17:14;;;;;;;42.88;5.82;;;;;;;;;;5087097;28;20020;-37
2021/08/14 00:19:41;;;;;;;62.55;6.68;;;;;;;;;;5088964;28;20686;-36
2021/08/14 00:22:08;;;;;;;42.58;6.40;;;;;;;;;;5084410;28;20111;-37
2021/08/14 00:24:35;;;;;;;37.60;5.38;;;;;;;;;;5080918;28;20029;-35
2021/08/14 00:27:02;;;;;;;54.05;6.53;;;;;;;;;;5075143;28;20115;-37
2021/08/14 00:29:29;;;;;;;60.53;7.18;;;;;;;;;;5074415;28;20011;-38
2021/08/14 00:31:56;;;;;;;43.70;6.00;;;;;;;;;;5082817;28;20395;-40
2021/08/14 00:34:23;;;;;;;53.47;6.97;;;;;;;;;;5081896;28;20144;-35
2021/08/14 00:36:50;;;;;;;53.67;5.63;;;;;;;;;;5088237;28;20115;-38
2021/08/14 00:39:17;;;;;;;46.40;5.90;;;;;;;;;;5079769;28;20122;-38
2021/08/14 00:41:45;;;;;;;33.85;4.88;;;;;;;;;;5083892;28;20032;-36
2021/08/14 00:44:12;;;;;;;28.08;4.95;;;;;;;;;;5083998;28;20042;-38
2021/08/14 00:46:41;;;;;;;27.15;4.45;;;;;;;;;;5066668;28;20098;-37
2021/08/14 00:49:08;;;;;;;30.83;4.82;;;;;;;;;;5081488;28;20039;-37
2021/08/14 00:51:35;;;;;;;29.33;6.00;;;;;;;;;;5076460;28;20089;-37
2021/08/14 00:54:02;;;;;;;32.97;5.43;;;;;;;;;;5077344;28;20031;-36
2021/08/14 00:56:29;;;;;;;33.72;5.75;;;;;;;;;;5078750;28;20399;-34
2021/08/14 00:58:56;;;;;;;28.40;6.07;;;;;;;;;;5087138;28;20024;-38
2021/08/14 01:01:24;;;;;;;29.08;6.47;;;;;;;;;;5088458;28;20077;-38
2021/08/14 01:03:53;;;;;;;36.30;6.25;;;;;;;;;;5081864;28;20153;-36
2021/08/14 01:06:20;;;;;;;27.50;6.63;;;;;;;;;;5080335;28;20113;-34
2021/08/14 01:08:51;;;;;;;28.58;6.93;;;;;;;;;;5083197;28;20060;-38
2021/08/14 01:11:18;;;;;;;31.45;7.07;;;;;;;;;;5085091;28;20037;-36
2021/08/14 01:13:46;;;;;;;36.88;7.22;;;;;;;;;;5069392;28;20050;-38
2021/08/14 01:16:13;;;;;;;35.95;6.35;;;;;;;;;;5087744;28;20032;-36
2021/08/14 01:18:44;;;;;;;29.98;6.13;;;;;;;;;;5073535;28;20035;-33
2021/08/14 01:21:15;;;;;;;34.33;5.97;;;;;;;;;;5077184;28;20027;-37
2021/08/14 01:23:43;;;;;;;27.90;6.03;;;;;;;;;;5075254;28;20052;-34
2021/08/14 01:26:12;;;;;;;33.38;6.07;;;;;;;;;;5080496;28;20043;-36
2021/08/14 01:28:39;;;;;;;33.92;6.43;;;;;;;;;;5083465;28;20044;-36
2021/08/14 01:31:08;;;;;;;20.83;5.47;;;;;;;;;;5083163;28;20020;-33
2021/08/14 01:33:36;;;;;;;27.67;5.90;;;;;;;;;;5076946;28;20004;-35
2021/08/14 01:36:05;;;;;;;26.27;6.05;;;;;;;;;;5087479;28;20024;-32
2021/08/14 01:38:34;;;;;;;30.65;5.70;;;;;;;;;;5084106;28;20047;-35
2021/08/14 01:41:06;;;;;;;22.08;5.05;;;;;;;;;;5073412;28;20059;-37
2021/08/14 01:43:49;;;;;;;15.75;4.47;;;;;;;;;;5079592;28;20023;-38
2021/08/14 01:46:15;;;;;;;;;;;;;;;;;;5086418;28;20479;-40
2021/08/14 01:48:42;;;;;;;19.98;4.88;;;;;;;;;;5083788;28;20413;-39
2021/08/14 01:51:09;;;;;;;22.58;4.75;;;;;;;;;;5078120;28;20031;-44
2021/08/14 01:53:36;;;;;;;24.88;4.53;;;;;;;;;;5076474;28;20096;-47
2021/08/14 01:56:03;;;;;;;30.13;4.80;;;;;;;;;;5079827;28;20040;-37
2021/08/14 01:58:31;;;;;;;17.55;4.32;;;;;;;;;;5080735;28;20403;-43
2021/08/14 02:00:58;;;;;;;21.67;4.13;;;;;;;;;;5079487;28;20152;-42
2021/08/14 02:03:25;;;;;;;18.20;4.00;;;;;;;;;;5078305;28;20016;-48
2021/08/14 02:05:52;;;;;;;18.65;4.28;;;;;;;;;;5078350;28;20037;-41
2021/08/14 02:08:19;;;;;;;20.08;5.10;;;;;;;;;;5077977;28;20107;-41
2021/08/14 02:10:46;;;;;;;17.70;4.22;;;;;;;;;;5078203;28;20059;-42
2021/08/14 02:13:13;;;;;;;18.58;4.57;;;;;;;;;;5083556;28;20071;-37
2021/08/14 02:15:40;;;;;;;19.63;4.07;;;;;;;;;;5078320;28;20028;-32
2021/08/14 02:18:07;;;;;;;13.93;3.95;;;;;;;;;;5069379;28;20036;-35
2021/08/14 02:20:34;;;;;;;22.42;3.97;;;;;;;;;;5074481;28;20025;-37
2021/08/14 02:23:01;;;;;;;17.67;3.72;;;;;;;;;;5075371;28;20369;-46
2021/08/14 02:25:28;;;;;;;14.18;3.83;;;;;;;;;;5073155;28;20029;-40
2021/08/14 02:27:55;;;;;;;17.40;3.60;;;;;;;;;;5074455;28;20479;-46
2021/08/14 02:30:22;;;;;;;16.02;3.60;;;;;;;;;;5076088;28;20542;-41
2021/08/14 02:32:49;;;;;;;13.77;3.72;;;;;;;;;;5057319;28;20024;-41
2021/08/14 02:35:16;;;;;;;15.40;3.22;;;;;;;;;;5081425;28;20036;-39
2021/08/14 02:37:43;;;;;;;13.70;3.65;;;;;;;;;;5076520;28;20036;-43
2021/08/14 02:40:10;;;;;;;17.48;3.75;;;;;;;;;;5084877;28;20098;-35
2021/08/14 02:42:44;;;;;;;11.98;3.38;;;;;;;;;;5082757;28;20060;-39
2021/08/14 02:45:11;;;;;;;13.30;3.75;;;;;;;;;;5083114;28;20028;-34
2021/08/14 02:47:38;;;;;;;12.68;3.30;;;;;;;;;;5085099;28;20039;-44
2021/08/14 02:50:06;;;;;;;15.63;2.90;;;;;;;;;;5086307;28;20476;-43
2021/08/14 02:52:33;;;;;;;11.45;2.72;;;;;;;;;;5083158;28;20060;-34
2021/08/14 02:55:00;;;;;;;16.88;3.35;;;;;;;;;;5088762;28;20559;-35
2021/08/14 02:57:27;;;;;;;15.82;3.42;;;;;;;;;;5088107;28;21064;-34
2021/08/14 02:59:54;;;;;;;9.38;2.60;;;;;;;;;;5088817;28;20025;-40
2021/08/14 03:02:21;;;;;;;13.57;3.20;;;;;;;;;;5081909;28;20391;-34
2021/08/14 03:04:48;;;;;;;11.15;2.78;;;;;;;;;;5085776;28;20390;-35
2021/08/14 03:07:15;;;;;;;23.27;3.30;;;;;;;;;;5075437;28;20028;-35
2021/08/14 03:09:42;;;;;;;15.15;3.20;;;;;;;;;;5085678;28;20039;-39
2021/08/14 03:12:10;;;;;;;13.88;2.85;;;;;;;;;;5088723;28;20761;-45
2021/08/14 03:14:38;;;;;;;12.88;3.22;;;;;;;;;;5090274;28;20356;-37
2021/08/14 03:17:06;;;;;;;12.43;3.45;;;;;;;;;;5090921;28;20043;-36
2021/08/14 03:19:34;;;;;;;11.27;3.00;;;;;;;;;;5093090;28;20030;-36
2021/08/14 03:22:01;;;;;;;9.90;2.38;;;;;;;;;;5093092;28;20027;-37
2021/08/14 03:24:28;;;;;;;12.70;2.72;;;;;;;;;;5087678;28;20012;-39
2021/08/14 03:26:55;;;;;;;10.60;2.75;;;;;;;;;;5083655;28;20025;-41
2021/08/14 03:29:22;;;;;;;9.90;2.63;;;;;;;;;;5088068;28;20074;-37
2021/08/14 03:31:49;;;;;;;9.95;2.17;;;;;;;;;;5092534;28;20023;-36
2021/08/14 03:34:16;;;;;;;11.82;2.63;;;;;;;;;;5092016;28;20035;-35
2021/08/14 03:36:43;;;;;;;12.70;2.60;;;;;;;;;;5092975;28;20020;-35
2021/08/14 03:39:10;;;;;;;8.20;2.45;;;;;;;;;;5092964;28;20024;-38
2021/08/14 03:41:37;;;;;;;8.93;2.40;;;;;;;;;;5091690;28;20012;-36
2021/08/14 03:44:05;;;;;;;9.90;2.80;;;;;;;;;;5092772;28;20024;-38
2021/08/14 03:46:32;;;;;;;8.50;2.30;;;;;;;;;;5091907;28;20032;-37
2021/08/14 03:48:59;;;;;;;9.30;2.50;;;;;;;;;;5092519;28;20103;-36
2021/08/14 03:51:26;;;;;;;10.73;2.88;;;;;;;;;;5092018;28;20028;-35
2021/08/14 03:53:53;;;;;;;9.27;2.28;;;;;;;;;;5092452;28;20051;-36
2021/08/14 03:56:20;;;;;;;9.30;2.17;;;;;;;;;;5089649;28;20044;-36
2021/08/14 03:58:47;;;;;;;5.18;2.10;;;;;;;;;;5090654;28;20107;-38
2021/08/14 04:01:14;;;;;;;4.93;1.90;;;;;;;;;;5091887;28;20417;-37
2021/08/14 04:03:41;;;;;;;7.05;2.17;;;;;;;;;;5091175;28;20020;-36
2021/08/14 04:06:08;;;;;;;12.27;2.70;;;;;;;;;;5092654;28;20074;-45
2021/08/14 04:08:35;;;;;;;12.85;2.00;;;;;;;;;;5092352;28;20021;-36
2021/08/14 04:11:06;;;;;;;7.07;1.55;;;;;;;;;;5091693;28;20035;-38
2021/08/14 04:13:33;;;;;;;6.68;1.90;;;;;;;;;;5092221;28;20020;-43
2021/08/14 04:16:00;;;;;;;7.35;2.00;;;;;;;;;;5091246;28;20020;-38
2021/08/14 04:18:27;;;;;;;5.13;1.80;;;;;;;;;;5074060;28;20063;-36
2021/08/14 04:20:54;;;;;;;7.72;1.80;;;;;;;;;;5073306;28;20474;-36
2021/08/14 04:23:21;;;;;;;4.45;1.60;;;;;;;;;;5091975;28;20035;-45
2021/08/14 04:25:48;;;;;;;9.55;1.75;;;;;;;;;;5091760;28;20028;-41
2021/08/14 04:28:15;;;;;;;4.28;1.60;;;;;;;;;;5091514;28;20069;-45
2021/08/14 04:30:42;;;;;;;4.78;1.75;;;;;;;;;;5091862;28;20069;-43
2021/08/14 04:33:09;;;;;;;9.20;2.35;;;;;;;;;;5091264;28;20039;-45
2021/08/14 04:35:36;;;;;;;5.85;1.92;;;;;;;;;;5092137;28;20024;-48
2021/08/14 04:38:03;;;;;;;5.88;1.70;;;;;;;;;;5091630;28;20024;-40
2021/08/14 04:40:30;;;;;;;6.03;1.35;;;;;;;;;;5091790;28;20023;-40
2021/08/14 04:42:57;;;;;;;4.65;1.90;;;;;;;;;;5073281;28;20024;-37
2021/08/14 04:45:24;;;;;;;7.35;1.55;;;;;;;;;;5091059;28;20503;-46
2021/08/14 04:47:52;;;;;;;3.90;1.70;;;;;;;;;;5091160;28;20020;-44
2021/08/14 04:50:19;;;;;;;6.63;1.88;;;;;;;;;;5091353;28;20475;-41
2021/08/14 04:52:46;;;;;;;6.97;1.90;;;;;;;;;;5091486;28;20032;-38
2021/08/14 04:55:13;;;;;;;7.28;1.52;;;;;;;;;;5090711;28;20531;-39
2021/08/14 04:57:40;;;;;;;5.13;1.80;;;;;;;;;;5091736;28;20086;-46
2021/08/14 05:00:07;;;;;;;4.90;1.70;;;;;;;;;;5091045;28;20012;-36
2021/08/14 05:02:34;;;;;;;6.82;1.70;;;;;;;;;;5090897;28;20043;-38
2021/08/14 05:05:01;;;;;;;5.43;1.38;;;;;;;;;;5091194;28;20046;-44
2021/08/14 05:07:29;;;;;;;6.85;1.50;;;;;;;;;;5090619;28;20531;-42
2021/08/14 05:09:55;;;;;;;4.18;1.35;;;;;;;;;;5091489;28;20051;-37
2021/08/14 05:12:22;;;;;;;4.93;1.20;;;;;;;;;;5090257;28;20027;-37
2021/08/14 05:14:50;;;;;;;5.13;1.70;;;;;;;;;;5091134;28;20024;-36
2021/08/14 05:17:17;;;;;;;6.95;1.63;;;;;;;;;;5089949;28;20550;-36
2021/08/14 05:19:44;;;;;;;4.47;1.42;;;;;;;;;;5091106;28;20375;-36
2021/08/14 05:22:11;;;;;;;5.75;1.35;;;;;;;;;;5090789;28;20527;-37
2021/08/14 05:24:38;;;;;;;6.60;1.48;;;;;;;;;;5072085;28;20012;-39
2021/08/14 05:27:05;;;;;;;4.63;1.52;;;;;;;;;;5091301;28;20080;-37
2021/08/14 05:29:32;;;;;;;4.47;1.50;;;;;;;;;;5090271;28;20095;-38
2021/08/14 05:31:59;;;;;;;5.30;1.38;;;;;;;;;;5090881;28;20530;-38
2021/08/14 05:34:26;;;;;;;2.85;1.10;;;;;;;;;;5090167;28;20028;-37
2021/08/14 05:36:53;;;;;;;4.05;1.20;;;;;;;;;;5090881;28;20038;-36
2021/08/14 05:39:20;;;;;;;5.05;1.73;;;;;;;;;;5091350;28;20153;-41
2021/08/14 05:41:51;;;;;;;3.22;1.05;;;;;;;;;;5090303;28;20498;-43
2021/08/14 05:44:19;;;;;;;2.90;1.20;;;;;;;;;;5090197;28;20502;-38
2021/08/14 05:46:46;;;;;;;2.63;1.00;;;;;;;;;;5090033;28;20093;-36
2021/08/14 05:49:15;;;;;;;3.63;1.25;;;;;;;;;;5090753;28;20064;-38
2021/08/14 05:51:42;;;;;;;5.88;1.30;;;;;;;;;;5090474;28;20004;-37
2021/08/14 05:54:09;;;;;;;5.28;1.10;;;;;;;;;;5090105;28;20459;-36
2021/08/14 05:56:36;;;;;;;6.65;1.30;;;;;;;;;;5090368;28;20097;-38
2021/08/14 05:59:03;;;;;;;2.67;1.10;;;;;;;;;;5090027;28;20571;-38
2021/08/14 06:01:30;;;;;;;5.13;1.30;;;;;;;;;;5090599;28;20031;-37
2021/08/14 06:03:57;;;;;;;4.00;1.33;;;;;;;;;;5089845;28;20123;-38
2021/08/14 06:06:24;;;;;;;5.13;1.40;;;;;;;;;;5090585;28;20119;-38
2021/08/14 06:08:51;;;;;;;2.20;1.08;;;;;;;;;;5090612;28;20017;-41
2021/08/14 06:11:18;;;;;;;3.75;0.95;;;;;;;;;;5090634;28;20008;-38
2021/08/14 06:13:45;;;;;;;3.17;1.13;;;;;;;;;;5090178;28;20016;-36
2021/08/14 06:16:14;;;;;;;4.68;1.10;;;;;;;;;;5089803;28;20028;-37
2021/08/14 06:18:41;;;;;;;2.53;1.10;;;;;;;;;;5090439;28;20067;-37
2021/08/14 06:21:09;;;;;;;2.30;1.17;;;;;;;;;;5089689;28;20035;-36
2021/08/14 06:23:36;;;;;;;3.08;1.02;;;;;;;;;;5090361;28;20020;-38
2021/08/14 06:26:03;;;;;;;1.58;0.85;;;;;;;;;;5089738;28;20060;-38
2021/08/14 06:28:30;;;;;;;3.42;0.88;;;;;;;;;;5093339;28;20788;-35
2021/08/14 06:30:57;;;;;;;3.17;1.10;;;;;;;;;;5094441;28;20503;-35
2021/08/14 06:33:24;;;;;;;2.28;1.20;;;;;;;;;;5093706;28;20024;-35
2021/08/14 06:35:51;;;;;;;7.10;0.93;;;;;;;;;;5094104;28;20085;-36
2021/08/14 06:38:18;;;;;;;2.50;0.90;;;;;;;;;;5094306;28;20099;-35
2021/08/14 06:40:45;;;;;;;2.55;0.80;;;;;;;;;;5093732;28;20020;-39
2021/08/14 06:43:12;;;;;;;2.28;0.90;;;;;;;;;;5093023;28;20023;-35
2021/08/14 06:45:39;;;;;;;3.28;1.00;;;;;;;;;;5089900;28;20105;-36
2021/08/14 06:48:07;;;;;;;2.92;1.23;;;;;;;;;;5093979;28;20401;-37
2021/08/14 06:50:34;;;;;;;3.30;1.30;;;;;;;;;;5094019;28;20028;-37
2021/08/14 06:53:01;;;;;;;2.60;1.15;;;;;;;;;;5093359;28;20070;-37
2021/08/14 06:55:28;;;;;;;1.83;1.00;;;;;;;;;;5093129;28;20117;-39
2021/08/14 06:57:55;;;;;;;1.88;0.93;;;;;;;;;;5093244;28;20023;-48
2021/08/14 07:00:22;;;;;;;2.25;0.90;;;;;;;;;;5093527;28;20020;-48
2021/08/14 07:02:49;;;;;;;1.83;0.73;;;;;;;;;;5074946;28;20082;-44
2021/08/14 07:05:16;;;;;;;3.83;1.17;;;;;;;;;;5093105;28;20049;-46
2021/08/14 07:07:43;;;;;;;3.35;1.02;;;;;;;;;;5093510;28;20020;-46
2021/08/14 07:10:11;;;;;;;2.13;0.98;;;;;;;;;;5092922;28;20016;-44
2021/08/14 07:12:38;;;;;;;2.53;1.00;;;;;;;;;;5093248;28;20035;-46
2021/08/14 07:15:06;;;;;;;2.42;0.88;;;;;;;;;;5092848;28;20024;-45
2021/08/14 07:17:33;;;;;;;2.75;0.85;;;;;;;;;;5093449;28;20019;-36
2021/08/14 07:20:00;;;;;;;2.50;0.90;;;;;;;;;;5093075;28;20027;-36
2021/08/14 07:22:27;;;;;;;1.92;0.95;;;;;;;;;;5093046;28;20051;-36
2021/08/14 07:24:54;;;;;;;2.67;1.05;;;;;;;;;;5194463;22;20051;-40
2021/08/14 07:27:21;;;;;;;3.20;1.25;;;;;;;;;;5049832;28;20041;-43
2021/08/14 07:29:48;;;;;;;2.15;0.95;;;;;;;;;;5053146;28;20430;-45
2021/08/14 07:32:16;;;;;;;3.67;1.05;;;;;;;;;;5052530;28;20032;-43
2021/08/14 07:34:43;;;;;;;3.00;0.98;;;;;;;;;;5052725;28;20017;-45
2021/08/14 07:37:10;;;;;;;3.35;1.00;;;;;;;;;;5052535;28;20025;-47
2021/08/14 07:39:37;;;;;;;2.20;1.20;;;;;;;;;;5051998;28;20071;-37
2021/08/14 07:42:04;;;;;;;2.65;0.90;;;;;;;;;;5052311;28;20481;-38
2021/08/14 07:44:31;;;;;;;2.78;0.90;;;;;;;;;;5052887;28;20532;-37
2021/08/14 07:46:58;;;;;;;2.88;1.25;;;;;;;;;;5052462;28;20029;-35
2021/08/14 07:49:25;;;;;;;3.60;1.10;;;;;;;;;;5053103;28;20096;-36
2021/08/14 07:51:52;;;;;;;2.67;0.93;;;;;;;;;;5052192;28;20367;-37
2021/08/14 07:54:20;;;;;;;3.95;1.10;;;;;;;;;;5052378;28;20021;-37
2021/08/14 07:56:47;;;;;;;2.03;1.10;;;;;;;;;;5050932;28;20021;-36
2021/08/14 07:59:13;;;;;;;2.75;1.00;;;;;;;;;;5054447;28;20495;-36
2021/08/14 08:01:41;;;;;;;2.83;1.27;;;;;;;;;;5054748;28;20031;-39
2021/08/14 08:04:07;;;;;;;2.60;1.20;;;;;;;;;;5072249;28;20024;-39
2021/08/14 08:06:34;;;;;;;4.78;1.10;;;;;;;;;;5071923;28;20050;-40
2021/08/14 08:09:02;;;;;;;2.55;1.30;;;;;;;;;;5063190;28;20052;-38
2021/08/14 08:11:29;;;;;;;2.60;1.10;;;;;;;;;;5072355;28;20029;-37
2021/08/14 08:13:56;;;;;;;3.25;1.08;;;;;;;;;;5072195;28;20024;-36
2021/08/14 08:16:23;;;;;;;1.40;0.90;;;;;;;;;;5072222;28;20492;-39
2021/08/14 08:18:50;;;;;;;2.20;0.82;;;;;;;;;;5054579;28;20468;-39
2021/08/14 08:21:17;;;;;;;3.00;1.30;;;;;;;;;;5055027;28;20066;-37
2021/08/14 08:23:44;;;;;;;4.75;1.13;;;;;;;;;;5071956;28;20380;-36
2021/08/14 08:26:11;;;;;;;3.00;1.20;;;;;;;;;;5077944;28;20511;-39
2021/08/14 08:28:38;;;;;;;3.40;1.40;;;;;;;;;;5072153;28;20016;-38
2021/08/14 08:31:05;;;;;;;4.43;0.98;;;;;;;;;;5075014;28;20077;-38
2021/08/14 08:33:32;;;;;;;2.15;1.00;;;;;;;;;;5077382;28;20095;-38
2021/08/14 08:35:59;;;;;;;3.05;1.10;;;;;;;;;;5071153;28;20020;-37
2021/08/14 08:38:27;;;;;;;1.42;1.13;;;;;;;;;;5072035;28;20028;-38
2021/08/14 08:40:56;;;;;;;3.47;1.10;;;;;;;;;;5071041;28;20029;-35
2021/08/14 08:43:23;;;;;;;1.98;0.93;;;;;;;;;;5072263;28;20099;-37
2021/08/14 08:45:50;;;;;;;3.17;1.38;;;;;;;;;;5071112;28;20545;-35
2021/08/14 08:48:19;;;;;;;1.75;1.08;;;;;;;;;;5071934;28;20078;-36
2021/08/14 08:50:49;;;;;;;2.65;1.10;;;;;;;;;;5070329;28;20049;-38
2021/08/14 08:53:16;;;;;;;2.10;1.13;;;;;;;;;;5071739;28;20640;-38
2021/08/14 08:55:43;;;;;;;3.30;1.20;;;;;;;;;;5070837;28;20419;-39
2021/08/14 08:58:10;;;;;;;2.60;1.10;;;;;;;;;;5071871;28;20361;-38
2021/08/14 09:00:37;;;;;;;2.55;1.23;;;;;;;;;;5071233;28;20384;-38
2021/08/14 09:03:15;;;;;;;3.03;1.40;;;;;;;;;;5071932;28;20054;-38
2021/08/14 09:05:46;;;;;;;3.67;1.35;;;;;;;;;;5079428;28;20040;-36
2021/08/14 09:08:14;;;;;;;2.55;1.15;;;;;;;;;;5071728;28;20067;-37
2021/08/14 09:10:41;;;;;;;2.00;1.23;;;;;;;;;;5083531;28;20051;-37
2021/08/14 09:13:15;;;;;;;3.10;1.17;;;;;;;;;;5070729;28;20028;-38
2021/08/14 09:15:43;;;;;;;2.95;1.42;;;;;;;;;;5071381;28;20021;-36
2021/08/14 09:18:11;;;;;;;2.80;1.30;;;;;;;;;;5071216;28;20013;-40
2021/08/14 09:20:46;;;;;;;4.32;1.50;;;;;;;;;;5070767;28;20031;-39
2021/08/14 09:23:16;;;;;;;2.47;1.48;;;;;;;;;;5064084;28;20035;-37
2021/08/14 09:25:46;;;;;;;3.88;1.42;;;;;;;;;;5080800;28;20105;-36
2021/08/14 09:28:15;;;;;;;3.95;1.48;;;;;;;;;;5072055;28;20021;-37
2021/08/14 09:30:46;;;;;;;2.65;1.48;;;;;;;;;;5091195;28;20028;-36
2021/08/14 09:33:14;;;;;;;2.92;1.55;;;;;;;;;;5091497;28;20028;-37
2021/08/14 09:35:42;;;;;;;4.28;1.88;;;;;;;;;;5091005;28;20510;-37
2021/08/14 09:38:10;;;;;;;2.95;1.65;;;;;;;;;;5091372;28;20028;-40
2021/08/14 09:40:45;;;;;;;2.47;1.45;;;;;;;;;;5091551;28;20019;-36
2021/08/14 09:43:13;;;;;;;3.33;1.30;;;;;;;;;;5091684;28;20024;-37
2021/08/14 09:45:40;;;;;;;2.75;1.40;;;;;;;;;;5090679;28;20036;-37
2021/08/14 09:48:17;;;;;;;7.63;1.50;;;;;;;;;;5090519;28;20074;-39
2021/08/14 09:50:45;;;;;;;5.18;1.65;;;;;;;;;;5091383;28;20099;-46
2021/08/14 09:53:22;;;;;;;2.85;1.48;;;;;;;;;;5073055;28;20109;-49
2021/08/14 09:55:52;;;;;;;2.92;1.63;;;;;;;;;;5091130;28;20023;-45
2021/08/14 09:58:24;;;;;;;4.50;1.70;;;;;;;;;;5090897;28;20023;-44
2021/08/14 10:00:52;;;;;;;3.97;1.48;;;;;;;;;;5090890;28;20129;-42
2021/08/14 10:03:20;;;;;;;2.55;1.45;;;;;;;;;;5093751;28;20077;-47
2021/08/14 10:05:47;;;;;;;5.03;1.42;;;;;;;;;;5094992;28;20027;-48
2021/08/14 10:08:14;;;;;;;3.08;1.40;;;;;;;;;;5094665;28;20103;-50
2021/08/14 10:10:42;;;;;;;3.78;1.25;;;;;;;;;;5095390;28;20027;-46
2021/08/14 10:13:10;;;;;;;3.85;1.77;;;;;;;;;;5094445;28;20020;-45
2021/08/14 10:15:37;;;;;;;3.70;1.35;;;;;;;;;;5095227;28;20412;-47
2021/08/14 10:18:05;;;;;;;4.05;1.63;;;;;;;;;;5094322;28;20031;-45
2021/08/14 10:20:32;;;;;;;3.60;1.38;;;;;;;;;;5094755;28;20035;-46
2021/08/14 10:23:07;;;;;;;3.40;1.30;;;;;;;;;;5094522;28;20020;-39
2021/08/14 10:25:37;;;;;;;2.42;1.38;;;;;;;;;;5094574;28;20052;-37
2021/08/14 10:28:06;;;;;;;3.67;1.40;;;;;;;;;;5094607;28;20031;-38
2021/08/14 10:30:42;;;;;;;2.60;1.35;;;;;;;;;;5094406;28;20024;-37
2021/08/14 10:33:31;;;;;;;2.67;1.33;;;;;;;;;;5094580;28;20032;-37
2021/08/14 10:35:59;;;;;;;3.00;1.30;;;;;;;;;;5084687;28;20024;-37
2021/08/14 10:38:42;;;;;;;2.80;1.40;;;;;;;;;;5094296;28;20028;-37
2021/08/14 10:41:09;;;;;;;2.55;1.33;;;;;;;;;;5094475;28;20069;-38
2021/08/14 10:43:54;;;;;;;3.45;1.40;;;;;;;;;;5094438;28;20472;-38
2021/08/14 10:46:40;;;;;;;2.00;1.27;;;;;;;;;;5093848;28;20079;-38
2021/08/14 10:49:08;;;;;;;5.05;1.50;;;;;;;;;;5094506;28;20027;-38
2021/08/14 10:51:51;;;;;;;3.35;1.40;;;;;;;;;;5093835;28;20111;-40
2021/08/14 10:54:30;;;;;;;2.13;1.40;;;;;;;;;;5081039;28;20028;-40
2021/08/14 10:56:58;;;;;;;2.03;1.20;;;;;;;;;;5093840;28;20039;-37
2021/08/14 10:59:40;;;;;;;3.13;1.30;;;;;;;;;;5094168;28;20059;-36
2021/08/14 11:02:10;;;;;;;4.45;1.30;;;;;;;;;;5093822;28;20032;-36
2021/08/14 11:04:38;;;;;;;13.38;1.58;;;;;;;;;;5093821;28;20024;-36
2021/08/14 11:07:20;;;;;;;3.00;1.45;;;;;;;;;;5093565;28;20038;-35
2021/08/14 11:09:47;;;;;;;5.80;1.80;;;;;;;;;;5093920;28;20016;-36
2021/08/14 11:12:33;;;;;;;3.60;1.40;;;;;;;;;;5093643;28;20383;-36
2021/08/14 11:15:19;;;;;;;2.35;1.20;;;;;;;;;;5092947;28;20527;-36
2021/08/14 11:17:47;;;;;;;3.45;1.42;;;;;;;;;;5093252;28;20501;-37
2021/08/14 11:20:23;;;;;;;1.65;1.08;;;;;;;;;;5093813;28;20107;-37
2021/08/14 11:22:51;;;;;;;2.22;1.58;;;;;;;;;;5093532;28;20047;-36
2021/08/14 11:28:14;;;;;;;1.95;1.10;;;;;;;;;;5019728;28;20095;-36
2021/08/14 11:30:43;;;;;;;2.55;1.30;;;;;;;;;;5030902;28;20506;-36
2021/08/14 11:33:11;;;;;;;3.78;1.83;;;;;;;;;;5033114;28;20018;-35
2021/08/14 11:35:39;;;;;;;2.67;1.40;;;;;;;;;;5207163;22;20081;-35
2021/08/14 11:38:10;;;;;;;3.70;1.20;;;;;;;;;;5052928;28;20033;-37
2021/08/14 11:40:39;;;;;;;2.40;1.45;;;;;;;;;;5056750;28;20028;-37
2021/08/14 11:43:07;;;;;;;3.78;1.30;;;;;;;;;;5066488;28;20480;-38
2021/08/14 11:45:35;;;;;;;5.07;1.10;;;;;;;;;;5053000;28;20116;-47
2021/08/14 11:48:06;;;;;;;3.40;1.42;;;;;;;;;;5052716;28;20044;-48
2021/08/14 11:50:38;;;;;;;3.30;1.50;;;;;;;;;;5053040;28;20025;-39
2021/08/14 11:53:06;;;;;;;3.30;1.40;;;;;;;;;;5052718;28;20025;-36
2021/08/14 11:55:33;;;;;;;2.28;1.00;;;;;;;;;;5066848;28;20027;-38
2021/08/14 11:58:00;;;;;;;2.75;1.40;;;;;;;;;;5052793;28;20024;-41
2021/08/14 12:00:27;;;;;;;3.20;1.25;;;;;;;;;;5052181;28;20021;-37
2021/08/14 12:03:08;;;;;;;6.03;1.42;;;;;;;;;;5053084;28;20021;-37
2021/08/14 12:05:35;;;;;;;3.97;1.35;;;;;;;;;;5052546;28;20037;-37
2021/08/14 12:08:03;;;;;;;2.40;1.10;;;;;;;;;;5052787;28;20098;-37
2021/08/14 12:10:30;;;;;;;4.60;1.30;;;;;;;;;;5051831;28;20507;-43
2021/08/14 12:12:57;;;;;;;3.15;1.42;;;;;;;;;;5052672;28;20028;-36
2021/08/14 12:15:34;;;;;;;3.67;1.23;;;;;;;;;;5051628;28;20127;-37
2021/08/14 12:18:01;;;;;;;5.10;1.38;;;;;;;;;;5054422;28;20023;-38
2021/08/14 12:20:32;;;;;;;6.38;1.40;;;;;;;;;;5051935;28;20021;-37
2021/08/14 12:23:17;;;;;;;4.13;1.20;;;;;;;;;;5052501;28;22138;-41
2021/08/14 12:25:54;;;;;;;2.70;1.20;;;;;;;;;;5052052;28;20041;-38
2021/08/14 12:28:31;;;;;;;4.63;1.27;;;;;;;;;;5052371;28;20046;-39
2021/08/14 12:31:00;;;;;;;2.55;1.17;;;;;;;;;;5214282;22;20101;-37
2021/08/14 12:33:33;;;;;;;4.25;1.40;;;;;;;;;;5046365;28;20075;-38
2021/08/14 12:36:01;;;;;;;1.98;1.13;;;;;;;;;;5051692;28;20587;-36
2021/08/14 12:38:29;;;;;;;5.20;1.60;;;;;;;;;;5051165;28;20036;-36
2021/08/14 12:40:57;;;;;;;4.30;1.13;;;;;;;;;;5050766;28;20100;-37
2021/08/14 12:43:24;;;;;;;3.08;1.20;;;;;;;;;;5048847;28;20071;-37
2021/08/14 12:45:52;;;;;;;3.92;1.30;;;;;;;;;;5049766;28;20037;-37
2021/08/14 12:48:19;;;;;;;2.28;1.10;;;;;;;;;;5050684;28;20472;-39
2021/08/14 12:50:46;;;;;;;4.25;1.33;;;;;;;;;;5050268;28;20036;-38
2021/08/14 12:53:19;;;;;;;3.10;1.00;;;;;;;;;;5048890;28;20021;-37
2021/08/14 12:55:50;;;;;;;7.10;1.23;;;;;;;;;;5050489;28;20036;-37
2021/08/14 12:58:17;;;;;;;1.75;1.10;;;;;;;;;;5048872;28;20025;-37
2021/08/14 13:00:48;;;;;;;8.63;1.50;;;;;;;;;;5048872;28;20021;-40
2021/08/14 13:03:15;;;;;;;3.63;1.05;;;;;;;;;;5050461;28;20024;-40
2021/08/14 13:05:43;;;;;;;3.45;1.38;;;;;;;;;;5050320;28;20529;-36
2021/08/14 13:08:10;;;;;;;2.25;0.98;;;;;;;;;;5033016;28;20035;-35
2021/08/14 13:10:38;;;;;;;2.50;1.20;;;;;;;;;;5050069;28;20032;-35
2021/08/14 13:13:05;;;;;;;3.33;1.23;;;;;;;;;;5049475;28;20021;-37
2021/08/14 13:15:33;;;;;;;4.55;1.52;;;;;;;;;;5049670;28;20017;-37
2021/08/14 13:18:00;;;;;;;5.03;1.20;;;;;;;;;;5048612;28;20165;-37
2021/08/14 13:20:28;;;;;;;1.30;0.98;;;;;;;;;;5050184;28;20113;-35
2021/08/14 13:22:56;;;;;;;2.63;1.02;;;;;;;;;;5049645;28;20017;-36
2021/08/14 13:25:24;;;;;;;11.07;1.98;;;;;;;;;;5046701;28;20033;-39
2021/08/14 13:27:52;;;;;;;12.93;1.73;;;;;;;;;;5039006;28;20029;-52
2021/08/14 13:30:23;;;;;;;7.60;1.48;;;;;;;;;;5048000;28;20032;-44
2021/08/14 13:32:51;;;;;;;4.72;1.25;;;;;;;;;;5048305;28;20045;-45
2021/08/14 13:35:18;;;;;;;13.63;1.80;;;;;;;;;;5048748;28;20103;-40
2021/08/14 13:37:46;;;;;;;6.82;1.33;;;;;;;;;;5046397;28;20066;-43
2021/08/14 13:40:15;;;;;;;4.80;1.83;;;;;;;;;;5048534;28;20048;-44
2021/08/14 13:42:43;;;;;;;11.95;2.00;;;;;;;;;;5026102;28;21205;-42
2021/08/14 13:45:12;;;;;;;7.53;1.60;;;;;;;;;;5045815;28;22624;-42
2021/08/14 13:47:39;;;;;;;8.20;1.85;;;;;;;;;;5043521;28;20362;-44
2021/08/14 13:50:07;;;;;;;8.60;2.75;;;;;;;;;;5140599;22;20136;-39
2021/08/14 13:52:34;;;;;;;7.13;1.52;;;;;;;;;;5046385;28;20013;-42
2021/08/14 13:55:01;;;;;;;7.22;1.60;;;;;;;;;;5047907;28;20107;-34
2021/08/14 13:57:28;;;;;;;6.20;1.70;;;;;;;;;;5045368;28;20150;-37
2021/08/14 13:59:55;;;;;;;7.47;1.92;;;;;;;;;;5046398;28;20762;-37
2021/08/14 14:02:22;;;;;;;11.80;1.88;;;;;;;;;;5044746;28;20120;-37
2021/08/14 14:04:49;;;;;;;13.70;2.15;;;;;;;;;;5048071;28;20029;-38
2021/08/14 14:07:20;;;;;;;20.48;2.08;;;;;;;;;;5048761;28;20044;-43
2021/08/14 14:09:47;;;;;;;23.38;2.08;;;;;;;;;;5047901;28;20036;-36
2021/08/14 14:12:14;;;;;;;17.30;2.15;;;;;;;;;;5045131;28;21242;-38
2021/08/14 14:14:42;;;;;;;21.90;2.83;;;;;;;;;;5041564;28;20026;-36
2021/08/14 14:17:09;;;;;;;19.45;2.47;;;;;;;;;;5048895;28;20067;-37
2021/08/14 14:19:36;;;;;;;12.55;2.13;;;;;;;;;;5045364;28;20040;-36
2021/08/14 14:22:03;;;;;;;14.85;2.63;;;;;;;;;;5047383;28;20033;-38
2021/08/14 14:24:30;;;;;;;18.52;2.63;;;;;;;;;;5043724;28;20025;-36
2021/08/14 14:26:57;;;;;;;9.98;2.45;;;;;;;;;;5028235;28;20068;-37
2021/08/14 14:29:25;;;;;;;15.80;2.45;;;;;;;;;;5047930;28;20040;-38
2021/08/14 14:31:53;;;;;;;12.35;2.15;;;;;;;;;;5047755;28;20033;-38
2021/08/14 14:34:20;;;;;;;12.88;2.63;;;;;;;;;;5213386;23;20030;-37
2021/08/14 14:36:47;;;;;;;15.45;2.47;;;;;;;;;;5039420;28;20522;-38
2021/08/14 14:39:14;;;;;;;11.13;2.20;;;;;;;;;;5064026;28;20024;-36
2021/08/14 14:41:41;;;;;;;15.13;3.90;;;;;;;;;;5069213;28;20027;-38
2021/08/14 14:44:09;;;;;;;18.88;3.20;;;;;;;;;;5067883;28;20025;-37
2021/08/14 14:46:37;;;;;;;11.95;2.72;;;;;;;;;;5067165;28;20082;-38